Terminal Aerodrome Forecast
Issued by NWS Cleveland, OH

Home | Current Version | Previous Version | Graphics & Text | Print | Product List | Glossary Off
Versions: 1 2 3 4 5 6 7 8 9 10 11 12 13 14 15

000
FTUS41 KCLE 231300 AAA
TAFTOL
TAF AMD
KTOL 231358Z 2314/2412 36011KT P6SM OVC018
     FM231900 01011KT P6SM BKN035
     FM232300 01010KT P6SM SCT040
     FM240300 01006KT P6SM SKC=

USA.gov is the U.S. government's official web portal to all federal, state and local government web resources and services.